Terminal Aerodrome Forecast
Issued by NWS Raleigh/Durham, NC

Home | Current Version | Previous Version | Text Only | Print | Product List | Glossary On
Versions: 1 2 3 4 5 6 7 8 9 10 11 12 13
000
FTUS42 KRAH 222352 CCA
TAFGSO
TAF COR
KGSO 222352Z 2300/2324 VRB03KT P6SM BKN050
      TEMPO 2306/2310 5SM BR OVC010
     FM231000 12007KT 6SM BR OVC010
     FM231500 12010G18KT P6SM VCSH OVC025 PROB30 2318/2324
      14012G25KT 2SM SHRA BR OVC025=

USA.gov is the U.S. government's official web portal to all federal, state and local government web resources and services.